createdAt,value
2022-10-22T00:01:03.551Z,0.80
2022-10-22T00:03:33.020Z,6.25
2022-10-22T00:06:00.988Z,8.82
2022-10-22T00:08:29.008Z,3.72
2022-10-22T00:10:57.061Z,4.10
2022-10-22T00:13:25.432Z,3.45
2022-10-22T00:15:53.544Z,2.45
2022-10-22T00:18:21.611Z,3.60
2022-10-22T00:20:51.064Z,6.20
2022-10-22T00:23:19.034Z,4.38
2022-10-22T00:25:47.031Z,3.20
2022-10-22T00:28:15.056Z,4.38
2022-10-22T00:30:43.156Z,8.68
2022-10-22T00:33:11.154Z,3.33
2022-10-22T00:35:39.404Z,6.75
2022-10-22T00:38:08.765Z,4.55
2022-10-22T00:40:36.765Z,2.25
2022-10-22T00:43:04.825Z,3.25
2022-10-22T00:45:32.965Z,4.28
2022-10-22T00:48:05.846Z,3.88
2022-10-22T00:50:37.187Z,2.83
2022-10-22T00:53:08.289Z,4.85
2022-10-22T00:55:38.839Z,3.40
2022-10-22T00:58:07.047Z,2.92
2022-10-22T01:00:35.059Z,4.60
2022-10-22T01:03:03.212Z,3.55
2022-10-22T01:05:34.289Z,5.28
2022-10-22T01:08:02.306Z,6.63
2022-10-22T01:10:47.511Z,3.95
2022-10-22T01:13:26.176Z,3.30
2022-10-22T01:16:00.960Z,5.07
2022-10-22T01:18:38.242Z,3.78
2022-10-22T01:21:16.726Z,6.18
2022-10-22T01:24:18.273Z,7.38
2022-10-22T01:27:01.485Z,9.60
2022-10-22T01:29:35.207Z,14.50
2022-10-22T01:32:09.369Z,14.00
2022-10-22T01:34:40.587Z,12.05
2022-10-22T01:37:11.781Z,23.90
2022-10-22T01:39:40.902Z,19.02
2022-10-22T01:42:08.981Z,23.50
2022-10-22T01:44:38.425Z,28.80
2022-10-22T01:47:18.955Z,24.98
2022-10-22T01:50:25.416Z,25.27
2022-10-22T01:53:18.748Z,26.15
2022-10-22T01:55:57.938Z,24.57
2022-10-22T01:58:40.428Z,21.73
2022-10-22T02:01:17.097Z,24.52
2022-10-22T02:03:52.643Z,21.30
2022-10-22T02:06:24.371Z,17.92
2022-10-22T02:08:54.729Z,20.15
2022-10-22T02:11:22.845Z,22.17
2022-10-22T02:13:54.397Z,19.27
2022-10-22T02:16:29.635Z,17.48
2022-10-22T02:19:01.864Z,22.60
2022-10-22T02:21:30.080Z,25.02
2022-10-22T02:23:58.033Z,20.45
2022-10-22T02:26:35.183Z,21.10
2022-10-22T02:29:12.285Z,16.48
2022-10-22T02:31:46.500Z,23.33
2022-10-22T02:34:18.802Z,21.63
2022-10-22T02:36:50.408Z,20.35
2022-10-22T02:39:19.838Z,24.80
2022-10-22T02:41:47.940Z,27.35
2022-10-22T02:44:16.033Z,36.75
2022-10-22T02:46:45.670Z,22.42
2022-10-22T02:49:13.677Z,23.00
2022-10-22T02:51:41.749Z,23.63
2022-10-22T02:54:09.725Z,21.90
2022-10-22T02:56:37.727Z,24.63
2022-10-22T02:59:05.698Z,19.63
2022-10-22T03:01:33.698Z,22.30
2022-10-22T03:04:03.129Z,23.27
2022-10-22T03:06:31.133Z,25.08
2022-10-22T03:08:59.411Z,22.35
2022-10-22T03:11:27.466Z,30.20
2022-10-22T03:13:55.405Z,25.77
2022-10-22T03:16:23.373Z,23.35
2022-10-22T03:18:51.343Z,23.63
2022-10-22T03:21:29.561Z,24.15
2022-10-22T03:23:57.998Z,26.60
2022-10-22T03:26:26.585Z,27.85
2022-10-22T03:28:55.770Z,30.08
2022-10-22T03:31:23.755Z,25.13
2022-10-22T03:33:51.721Z,24.77
2022-10-22T03:36:19.875Z,30.55
2022-10-22T03:38:49.626Z,23.10
2022-10-22T03:41:17.666Z,19.85
2022-10-22T03:43:49.793Z,19.75
2022-10-22T03:46:17.814Z,20.83
2022-10-22T03:48:45.812Z,37.38
2022-10-22T03:51:14.039Z,26.25
2022-10-22T03:53:42.013Z,25.38
2022-10-22T03:56:12.929Z,28.67
2022-10-22T03:58:42.429Z,26.30
2022-10-22T04:01:13.168Z,27.23
2022-10-22T04:03:41.528Z,26.05
2022-10-22T04:06:12.275Z,21.73
2022-10-22T04:08:41.645Z,29.70
2022-10-22T04:11:11.737Z,27.73
2022-10-22T04:13:39.955Z,27.70
2022-10-22T04:16:09.498Z,22.05
2022-10-22T04:18:37.649Z,33.08
2022-10-22T04:21:06.112Z,27.25
2022-10-22T04:23:34.165Z,24.00
2022-10-22T04:26:03.610Z,28.38
2022-10-22T04:28:33.100Z,24.98
2022-10-22T04:31:01.112Z,19.95
2022-10-22T04:33:29.044Z,20.83
2022-10-22T04:35:57.079Z,21.77
2022-10-22T04:38:25.097Z,26.70
2022-10-22T04:40:53.068Z,23.17
2022-10-22T04:43:21.019Z,21.42
2022-10-22T04:45:50.454Z,20.85
2022-10-22T04:48:18.417Z,20.02
2022-10-22T04:50:46.367Z,22.17
2022-10-22T04:53:14.305Z,23.92
2022-10-22T04:55:42.281Z,18.80
2022-10-22T04:58:10.256Z,17.65
2022-10-22T05:00:38.271Z,20.15
2022-10-22T05:03:07.672Z,25.60
2022-10-22T05:05:35.680Z,19.38
2022-10-22T05:08:03.656Z,20.92
2022-10-22T05:10:31.671Z,19.02
2022-10-22T05:12:59.663Z,13.38
2022-10-22T05:15:27.657Z,12.77
2022-10-22T05:17:55.590Z,17.23
2022-10-22T05:20:24.965Z,17.73
2022-10-22T05:22:52.902Z,22.30
2022-10-22T05:25:20.920Z,21.00
2022-10-22T05:27:50.968Z,15.77
2022-10-22T05:30:19.105Z,18.10
2022-10-22T05:32:47.307Z,32.60
2022-10-22T05:35:15.409Z,23.13
2022-10-22T05:37:44.739Z,23.70
2022-10-22T05:40:26.537Z,19.80
2022-10-22T05:43:00.405Z,23.08
2022-10-22T05:45:28.401Z,16.48
2022-10-22T05:47:56.362Z,20.85
2022-10-22T05:50:24.319Z,22.60
2022-10-22T05:52:53.675Z,22.65
2022-10-22T05:55:21.699Z,41.22
2022-10-22T05:57:50.337Z,29.42
2022-10-22T06:00:18.804Z,28.35
2022-10-22T06:02:51.624Z,38.08
2022-10-22T06:05:19.670Z,45.47
2022-10-22T06:07:48.069Z,37.47
2022-10-22T06:10:20.880Z,41.88
2022-10-22T06:12:49.756Z,41.40
2022-10-22T06:15:20.275Z,46.90
2022-10-22T06:17:48.963Z,40.53
2022-10-22T06:20:17.103Z,36.90
2022-10-22T06:22:45.091Z,46.88
2022-10-22T06:25:14.279Z,49.17
2022-10-22T06:27:43.647Z,39.97
2022-10-22T06:30:12.405Z,43.20
2022-10-22T06:32:41.578Z,30.27
2022-10-22T06:35:09.879Z,25.75
2022-10-22T06:37:38.035Z,26.65
2022-10-22T06:40:06.922Z,25.40
2022-10-22T06:42:34.938Z,36.45
2022-10-22T06:45:04.542Z,20.98
2022-10-22T06:47:33.613Z,35.08
2022-10-22T06:50:01.898Z,28.50
2022-10-22T06:52:30.041Z,33.17
2022-10-22T06:54:58.168Z,34.47
2022-10-22T06:57:26.551Z,36.20
2022-10-22T06:59:55.297Z,33.65
2022-10-22T07:02:27.410Z,37.70
2022-10-22T07:04:58.322Z,40.03
2022-10-22T07:07:27.285Z,36.78
2022-10-22T07:09:56.227Z,41.65
2022-10-22T07:12:24.265Z,41.75
2022-10-22T07:14:52.228Z,40.65
2022-10-22T07:17:20.383Z,28.77
2022-10-22T07:19:52.637Z,35.30
2022-10-22T07:22:20.859Z,30.75
2022-10-22T07:24:49.152Z,27.55
2022-10-22T07:27:17.507Z,26.95
2022-10-22T07:32:50.164Z,23.92
2022-10-22T07:35:20.204Z,11.68
2022-10-22T07:37:48.552Z,12.30
2022-10-22T07:43:28.288Z,18.60
2022-10-22T07:46:00.052Z,18.15
2022-10-22T07:48:29.033Z,15.18
2022-10-22T07:50:59.083Z,5.75
2022-10-22T07:53:59.378Z,3.38
2022-10-22T07:56:27.685Z,5.15
2022-10-22T07:58:56.045Z,7.03
2022-10-22T08:01:24.445Z,10.35
2022-10-22T08:04:11.224Z,15.70
2022-10-22T08:23:03.851Z,9.50
2022-10-22T08:27:58.802Z,9.63
2022-10-22T08:30:30.286Z,3.25
2022-10-22T08:33:01.939Z,4.35
2022-10-22T08:56:26.036Z,5.65
2022-10-22T08:59:28.409Z,8.63
2022-10-22T09:03:04.308Z,5.07
2022-10-22T09:05:40.949Z,5.10
2022-10-22T09:08:12.487Z,10.45
2022-10-22T09:10:47.599Z,8.20
2022-10-22T09:13:19.432Z,5.05
2022-10-22T09:15:50.562Z,4.63
2022-10-22T09:18:31.989Z,6.45
2022-10-22T09:21:04.488Z,7.20
2022-10-22T09:23:40.147Z,3.67
2022-10-22T09:26:15.032Z,5.07
2022-10-22T09:28:43.282Z,5.72
2022-10-22T09:31:13.724Z,10.32
2022-10-22T09:33:43.499Z,2.85
2022-10-22T09:36:15.370Z,6.50
2022-10-22T09:38:49.661Z,5.93
2022-10-22T09:41:20.906Z,5.40
2022-10-22T09:43:49.107Z,11.13
2022-10-22T09:46:20.071Z,4.57
2022-10-22T09:48:51.329Z,11.00
2022-10-22T09:51:22.069Z,6.00
2022-10-22T09:53:58.057Z,9.30
2022-10-22T09:56:30.351Z,7.75
2022-10-22T09:58:59.536Z,4.82
2022-10-22T10:01:29.890Z,3.70
2022-10-22T10:04:08.444Z,7.97
2022-10-22T10:06:39.271Z,4.25
2022-10-22T10:09:14.564Z,8.98
2022-10-22T10:11:49.487Z,7.32
2022-10-22T10:14:22.891Z,4.32
2022-10-22T10:17:04.302Z,6.43
2022-10-22T10:19:44.836Z,8.60
2022-10-22T10:22:32.122Z,8.82
2022-10-22T10:25:15.467Z,4.40
2022-10-22T10:27:50.535Z,18.95
2022-10-22T10:30:21.282Z,2.75
2022-10-22T10:33:00.737Z,7.38
2022-10-22T10:35:32.453Z,3.45
2022-10-22T10:38:19.951Z,6.90
2022-10-22T10:40:52.659Z,12.80
2022-10-22T10:43:30.943Z,7.63
2022-10-22T10:46:07.942Z,4.20
2022-10-22T10:48:50.682Z,9.70
2022-10-22T10:51:36.872Z,12.27
2022-10-22T10:54:23.135Z,8.23
2022-10-22T10:56:56.882Z,13.23
2022-10-22T11:02:17.694Z,2.53
2022-10-22T11:05:08.892Z,3.42
2022-10-22T11:07:43.211Z,3.53
2022-10-22T11:10:20.943Z,16.55
2022-10-22T11:12:52.515Z,11.18
2022-10-22T11:15:29.338Z,5.15
2022-10-22T11:18:04.146Z,10.90
2022-10-22T11:20:45.270Z,2.35
2022-10-22T11:23:19.870Z,12.00
2022-10-22T11:25:50.914Z,3.95
2022-10-22T11:28:25.612Z,7.20
2022-10-22T11:31:02.028Z,7.20
2022-10-22T11:33:39.087Z,6.45
2022-10-22T11:36:09.499Z,8.25
2022-10-22T11:38:38.302Z,7.28
2022-10-22T11:41:08.671Z,6.40
2022-10-22T11:43:57.299Z,8.82
2022-10-22T11:46:39.541Z,8.00
2022-10-22T11:49:20.152Z,9.90
2022-10-22T11:51:48.476Z,12.93
2022-10-22T11:54:33.209Z,6.28
2022-10-22T11:57:20.459Z,7.30
2022-10-22T11:59:53.817Z,5.32
2022-10-22T12:02:46.697Z,14.00
2022-10-22T12:05:37.970Z,9.63
2022-10-22T12:08:25.254Z,10.32
2022-10-22T12:11:07.458Z,4.13
2022-10-22T12:13:58.785Z,6.03
2022-10-22T12:16:44.116Z,3.85
2022-10-22T12:19:25.611Z,5.32
2022-10-22T12:21:55.868Z,3.83
2022-10-22T12:24:26.965Z,7.07
2022-10-22T12:26:54.978Z,2.00
2022-10-22T12:29:26.664Z,8.88
2022-10-22T12:31:55.137Z,4.78
2022-10-22T12:34:26.292Z,11.07
2022-10-22T12:36:55.365Z,1.77
2022-10-22T12:39:27.956Z,4.18
2022-10-22T12:41:56.348Z,4.07
2022-10-22T12:44:24.431Z,6.45
2022-10-22T12:46:56.052Z,6.47
2022-10-22T12:49:34.655Z,5.47
2022-10-22T12:52:08.676Z,8.82
2022-10-22T12:54:40.366Z,12.20
2022-10-22T12:57:14.606Z,9.35
2022-10-22T12:59:48.776Z,4.88
2022-10-22T13:02:22.710Z,3.17
2022-10-22T13:05:22.427Z,3.27
2022-10-22T13:07:53.320Z,6.13
2022-10-22T13:10:25.900Z,5.78
2022-10-22T13:12:57.837Z,3.40
2022-10-22T13:15:38.963Z,5.53
2022-10-22T13:18:17.044Z,6.53
2022-10-22T13:20:54.743Z,7.68
2022-10-22T13:23:24.463Z,5.03
2022-10-22T13:26:00.920Z,8.32
2022-10-22T13:28:30.136Z,5.90
2022-10-22T13:31:00.290Z,7.57
2022-10-22T13:33:31.879Z,3.58
2022-10-22T13:36:01.642Z,4.75
2022-10-22T13:38:30.323Z,4.72
2022-10-22T13:40:59.376Z,4.60
2022-10-22T13:43:27.865Z,4.15
2022-10-22T13:45:59.220Z,2.15
2022-10-22T13:48:29.539Z,9.25
2022-10-22T13:50:57.886Z,4.63
2022-10-22T13:53:29.295Z,5.57
2022-10-22T13:55:57.612Z,4.20
2022-10-22T13:58:26.172Z,4.32
2022-10-22T14:00:57.161Z,5.65
2022-10-22T14:03:29.621Z,4.38
2022-10-22T14:05:58.304Z,5.28
2022-10-22T14:08:29.147Z,7.85
2022-10-22T14:10:57.281Z,5.97
2022-10-22T14:13:26.716Z,1.48
2022-10-22T14:15:54.949Z,4.50
2022-10-22T14:18:27.476Z,0.52
2022-10-22T14:20:57.700Z,3.63
2022-10-22T14:23:28.682Z,8.68
2022-10-22T14:25:57.151Z,9.48
2022-10-22T14:28:25.111Z,5.07
2022-10-22T14:30:53.562Z,2.05
2022-10-22T14:33:28.885Z,6.05
2022-10-22T14:35:58.819Z,4.47
2022-10-22T14:38:28.403Z,6.25
2022-10-22T14:40:59.788Z,3.40
2022-10-22T14:43:31.288Z,9.82
2022-10-22T14:46:00.025Z,0.98
2022-10-22T14:48:28.266Z,2.13
2022-10-22T14:50:56.675Z,5.32
2022-10-22T14:53:24.865Z,3.53
2022-10-22T14:55:58.644Z,4.40
2022-10-22T14:58:27.268Z,4.57
2022-10-22T15:00:55.618Z,4.68
2022-10-22T15:03:23.852Z,5.00
2022-10-22T15:05:56.007Z,4.90
2022-10-22T15:08:24.262Z,5.45
2022-10-22T15:11:01.487Z,1.13
2022-10-22T15:13:30.506Z,2.42
2022-10-22T15:15:59.897Z,3.40
2022-10-22T15:18:28.891Z,2.78
2022-10-22T15:20:59.014Z,2.53
2022-10-22T15:23:27.430Z,0.90
2022-10-22T15:25:56.320Z,3.72
2022-10-22T15:28:43.886Z,4.00
2022-10-22T15:31:53.961Z,3.95
2022-10-22T15:34:30.389Z,4.57
2022-10-22T15:37:00.738Z,5.68
2022-10-22T15:39:29.515Z,6.50
2022-10-22T15:41:58.799Z,6.38
2022-10-22T15:44:37.638Z,3.53
2022-10-22T15:47:11.024Z,7.70
2022-10-22T15:49:44.005Z,4.63
2022-10-22T15:52:30.518Z,10.32
2022-10-22T15:55:31.533Z,13.20
2022-10-22T15:58:08.311Z,9.20
2022-10-22T16:00:40.568Z,5.35
2022-10-22T16:03:09.211Z,6.32
2022-10-22T16:05:54.607Z,6.35
2022-10-22T16:08:22.848Z,3.22
2022-10-22T16:10:51.071Z,9.18
2022-10-22T16:13:21.040Z,17.45
2022-10-22T16:15:50.666Z,8.63
2022-10-22T16:18:18.981Z,18.98
2022-10-22T16:20:47.443Z,11.18
2022-10-22T16:23:18.796Z,7.97
2022-10-22T16:25:47.187Z,8.35
2022-10-22T16:28:15.787Z,6.05
2022-10-22T16:30:43.859Z,13.77
2022-10-22T16:33:13.417Z,13.32
2022-10-22T16:35:42.699Z,9.23
2022-10-22T16:38:12.263Z,10.35
2022-10-22T16:40:42.239Z,7.78
2022-10-22T16:43:10.855Z,5.72
2022-10-22T16:45:39.318Z,12.00
2022-10-22T16:48:07.467Z,5.82
2022-10-22T16:50:40.211Z,6.43
2022-10-22T16:53:08.223Z,44.47
2022-10-22T16:55:37.334Z,7.90
2022-10-22T16:58:05.696Z,13.90
2022-10-22T17:00:34.344Z,14.32
2022-10-22T17:03:02.370Z,5.63
2022-10-22T17:05:31.946Z,17.65
2022-10-22T17:08:01.389Z,12.93
2022-10-22T17:10:29.509Z,7.90
2022-10-22T17:12:57.517Z,7.75
2022-10-22T17:15:25.546Z,3.03
2022-10-22T17:17:53.869Z,12.32
2022-10-22T17:20:21.918Z,13.13
2022-10-22T17:22:50.963Z,13.60
2022-10-22T17:25:25.602Z,9.27
2022-10-22T17:27:55.303Z,12.65
2022-10-22T17:30:27.250Z,9.05
2022-10-22T17:32:55.682Z,5.95
2022-10-22T17:35:23.993Z,7.63
2022-10-22T17:37:52.130Z,9.30
2022-10-22T17:40:21.784Z,8.57
2022-10-22T17:42:50.018Z,5.22
2022-10-22T17:45:18.290Z,11.63
2022-10-22T17:47:47.733Z,19.50
2022-10-22T17:50:15.985Z,18.15
2022-10-22T17:52:44.344Z,8.88
2022-10-22T17:55:13.677Z,13.32
2022-10-22T17:57:43.337Z,19.75
2022-10-22T18:00:16.196Z,23.05
2022-10-22T19:31:37.395Z,5.28
2022-10-22T19:34:21.534Z,4.97
2022-10-22T19:37:10.408Z,3.83
2022-10-22T20:44:48.969Z,2.58
2022-10-22T20:47:18.824Z,8.05
2022-10-22T20:49:55.988Z,7.70
2022-10-22T20:55:23.602Z,7.32
2022-10-22T20:57:52.039Z,15.50
2022-10-22T21:00:20.291Z,15.75
2022-10-22T21:03:01.939Z,6.28
2022-10-22T21:08:28.808Z,21.38
2022-10-22T21:14:38.885Z,8.57
2022-10-22T21:17:08.379Z,16.63
2022-10-22T21:19:38.134Z,7.20
2022-10-22T21:22:06.203Z,4.25
2022-10-22T21:24:34.250Z,3.58
2022-10-22T21:27:03.372Z,5.18
2022-10-22T21:29:32.361Z,8.60
2022-10-22T21:32:00.384Z,8.13
2022-10-22T21:34:29.889Z,6.10
2022-10-22T21:37:00.446Z,5.50
2022-10-22T21:39:30.328Z,16.60
2022-10-22T21:42:01.295Z,7.30
2022-10-22T21:44:33.298Z,13.75
2022-10-22T21:47:04.531Z,6.00
2022-10-22T21:49:41.176Z,8.77
2022-10-22T21:52:15.369Z,10.85
2022-10-22T21:54:45.432Z,4.90
2022-10-22T21:57:16.716Z,10.35
2022-10-22T21:59:45.318Z,8.07
2022-10-22T22:02:15.319Z,5.53
2022-10-22T22:04:46.817Z,8.15
2022-10-22T22:07:18.901Z,8.13
2022-10-22T22:09:50.174Z,6.20
2022-10-22T22:12:19.748Z,7.30
2022-10-22T22:14:50.114Z,10.10
2022-10-22T22:17:18.701Z,14.20
2022-10-22T22:19:50.245Z,4.50
2022-10-22T22:22:25.199Z,12.02
2022-10-22T22:24:59.217Z,4.85
2022-10-22T22:27:31.259Z,12.13
2022-10-22T22:29:59.340Z,10.77
2022-10-22T22:32:27.348Z,8.82
2022-10-22T22:34:55.307Z,19.73
2022-10-22T22:37:24.706Z,10.32
2022-10-22T22:39:52.708Z,3.90
2022-10-22T22:42:20.736Z,8.10
2022-10-22T22:44:48.744Z,9.45
2022-10-22T22:47:16.826Z,8.93
2022-10-22T22:49:44.851Z,6.95
2022-10-22T22:52:12.936Z,4.78
2022-10-22T22:54:42.334Z,18.02
2022-10-22T22:57:10.357Z,1.95
2022-10-22T22:59:38.349Z,8.60
2022-10-22T23:02:06.778Z,4.03
2022-10-22T23:04:35.003Z,12.18
2022-10-22T23:07:03.153Z,6.63
2022-10-22T23:09:31.223Z,21.70
2022-10-22T23:12:00.658Z,5.15
2022-10-22T23:14:28.659Z,6.95
2022-10-22T23:16:56.797Z,5.25
2022-10-22T23:19:25.290Z,3.75
2022-10-22T23:21:55.299Z,4.45
2022-10-22T23:24:25.658Z,10.52
2022-10-22T23:26:55.545Z,2.72
2022-10-22T23:29:27.379Z,5.32
2022-10-22T23:31:56.957Z,6.03
2022-10-22T23:34:26.372Z,4.43
2022-10-22T23:36:55.137Z,10.02
2022-10-22T23:39:25.410Z,5.43
2022-10-22T23:41:54.069Z,6.72
2022-10-22T23:44:22.944Z,11.85
2022-10-22T23:46:52.585Z,12.48
2022-10-22T23:49:20.651Z,3.25
2022-10-22T23:51:48.711Z,5.30
2022-10-22T23:54:18.784Z,4.95
2022-10-22T23:56:48.093Z,10.30
2022-10-22T23:59:16.528Z,8.80
